createdAt,value
2023-02-05T00:00:28.475Z,6.63
2023-02-05T00:03:00.208Z,6.61
2023-02-05T00:05:32.263Z,6.59
2023-02-05T00:08:04.248Z,6.37
2023-02-05T00:10:35.775Z,6.71
2023-02-05T00:13:07.427Z,6.70
2023-02-05T00:15:42.095Z,6.16
2023-02-05T00:18:14.258Z,6.02
2023-02-05T00:20:45.907Z,5.94
2023-02-05T00:23:17.503Z,6.31
2023-02-05T00:25:49.089Z,6.18
2023-02-05T00:28:20.802Z,6.14
2023-02-05T00:30:52.906Z,6.00
2023-02-05T00:33:24.582Z,5.96
2023-02-05T00:35:56.191Z,6.18
2023-02-05T00:38:27.819Z,6.16
2023-02-05T00:41:00.041Z,5.91
2023-02-05T00:43:31.976Z,5.61
2023-02-05T00:46:03.719Z,5.66
2023-02-05T00:48:36.648Z,5.68
2023-02-05T00:51:09.392Z,5.61
2023-02-05T00:53:40.991Z,5.65
2023-02-05T00:56:13.085Z,5.68
2023-02-05T00:58:45.056Z,5.70
2023-02-05T01:01:17.520Z,5.66
2023-02-05T01:03:49.283Z,5.59
2023-02-05T01:06:21.011Z,5.34
2023-02-05T01:08:52.632Z,5.38
2023-02-05T01:11:24.186Z,5.42
2023-02-05T01:13:55.822Z,5.47
2023-02-05T01:16:27.533Z,5.49
2023-02-05T01:18:59.099Z,5.43
2023-02-05T01:21:30.722Z,5.29
2023-02-05T01:24:03.703Z,5.07
2023-02-05T01:26:35.278Z,5.21
2023-02-05T01:29:06.944Z,5.70
2023-02-05T01:31:38.717Z,5.55
2023-02-05T01:34:10.636Z,5.35
2023-02-05T01:36:42.234Z,5.28
2023-02-05T01:39:13.948Z,5.26
2023-02-05T01:41:45.683Z,5.15
2023-02-05T01:44:20.559Z,5.17
2023-02-05T01:46:54.089Z,5.39
2023-02-05T01:49:35.310Z,5.29
2023-02-05T01:52:13.388Z,5.16
2023-02-05T01:54:47.169Z,5.24
2023-02-05T01:57:24.212Z,5.10
2023-02-05T01:59:56.025Z,5.16
2023-02-05T02:02:28.176Z,5.24
2023-02-05T02:05:07.340Z,5.47
2023-02-05T02:07:39.139Z,5.20
2023-02-05T02:10:15.428Z,5.42
2023-02-05T02:12:49.939Z,5.17
2023-02-05T02:15:27.103Z,5.15
2023-02-05T02:18:03.983Z,5.36
2023-02-05T02:20:39.965Z,5.30
2023-02-05T02:23:37.361Z,5.62
2023-02-05T02:26:47.556Z,5.62
2023-02-05T02:29:41.834Z,5.68
2023-02-05T02:32:24.893Z,5.50
2023-02-05T02:35:10.726Z,5.53
2023-02-05T02:38:07.600Z,5.99
2023-02-05T02:40:46.481Z,5.51
2023-02-05T02:43:52.344Z,5.15
2023-02-05T02:46:31.699Z,5.46
2023-02-05T02:49:08.680Z,5.53
2023-02-05T02:51:43.896Z,5.18
2023-02-05T02:54:20.788Z,5.35
2023-02-05T02:56:54.492Z,5.60
2023-02-05T02:59:33.185Z,5.30
2023-02-05T03:02:10.894Z,5.05
2023-02-05T03:04:53.237Z,5.27
2023-02-05T03:07:37.768Z,5.29
2023-02-05T03:10:29.846Z,5.51
2023-02-05T03:13:01.551Z,5.76
2023-02-05T03:15:34.567Z,5.69
2023-02-05T03:18:06.754Z,5.41
2023-02-05T03:20:46.099Z,5.18
2023-02-05T03:23:21.184Z,5.15
2023-02-05T03:25:53.417Z,5.10
2023-02-05T03:28:31.205Z,4.97
2023-02-05T03:31:20.245Z,5.23
2023-02-05T03:34:06.686Z,5.44
2023-02-05T03:37:01.603Z,5.15
2023-02-05T03:40:14.341Z,5.06
2023-02-05T03:42:54.772Z,5.14
2023-02-05T03:45:39.750Z,5.13
2023-02-05T03:48:11.444Z,5.22
2023-02-05T03:50:49.857Z,5.53
2023-02-05T03:53:31.562Z,5.08
2023-02-05T03:56:12.251Z,5.47
2023-02-05T03:58:49.934Z,5.47
2023-02-05T04:01:25.359Z,5.09
2023-02-05T04:03:57.447Z,5.54
2023-02-05T04:06:29.366Z,5.30
2023-02-05T04:09:01.073Z,5.03
2023-02-05T04:11:32.688Z,5.23
2023-02-05T04:14:06.950Z,5.43
2023-02-05T04:16:41.018Z,5.14
2023-02-05T04:19:12.688Z,5.01
2023-02-05T04:21:44.445Z,5.01
2023-02-05T04:24:16.665Z,4.82
2023-02-05T04:26:49.027Z,4.90
2023-02-05T04:29:21.206Z,4.71
2023-02-05T04:31:55.527Z,4.92
2023-02-05T04:34:27.295Z,4.72
2023-02-05T04:36:59.772Z,4.84
2023-02-05T04:39:32.839Z,5.06
2023-02-05T04:42:04.648Z,4.99
2023-02-05T04:44:36.219Z,4.98
2023-02-05T04:47:07.996Z,5.25
2023-02-05T04:49:39.623Z,5.05
2023-02-05T04:52:11.286Z,5.13
2023-02-05T04:54:42.921Z,5.29
2023-02-05T04:57:14.474Z,4.88
2023-02-05T04:59:46.102Z,4.58
2023-02-05T05:02:17.669Z,4.95
2023-02-05T05:04:49.284Z,4.89
2023-02-05T05:07:20.861Z,4.97
2023-02-05T05:09:52.658Z,5.21
2023-02-05T05:12:24.273Z,4.80
2023-02-05T05:14:55.810Z,5.19
2023-02-05T05:17:28.036Z,4.82
2023-02-05T05:19:59.762Z,5.04
2023-02-05T05:22:31.363Z,5.07
2023-02-05T05:25:03.002Z,5.26
2023-02-05T05:27:34.578Z,5.72
2023-02-05T05:30:06.507Z,5.54
2023-02-05T05:32:38.102Z,5.52
2023-02-05T05:35:09.658Z,5.37
2023-02-05T05:37:41.264Z,5.59
2023-02-05T05:40:12.986Z,5.67
2023-02-05T05:42:44.581Z,5.29
2023-02-05T05:45:16.394Z,5.28
2023-02-05T05:47:48.014Z,5.56
2023-02-05T05:50:19.908Z,5.49
2023-02-05T05:52:51.546Z,5.64
2023-02-05T05:55:23.200Z,5.32
2023-02-05T05:57:54.829Z,5.50
2023-02-05T06:00:26.390Z,5.13
2023-02-05T06:02:57.994Z,5.15
2023-02-05T06:05:29.844Z,5.26
2023-02-05T06:08:01.484Z,5.10
2023-02-05T06:10:33.637Z,5.43
2023-02-05T06:13:05.276Z,5.57
2023-02-05T06:15:37.230Z,5.06
2023-02-05T06:18:09.047Z,5.24
2023-02-05T06:20:40.699Z,5.21
2023-02-05T06:23:12.921Z,4.79
2023-02-05T06:25:44.640Z,4.55
2023-02-05T06:28:20.554Z,5.01
2023-02-05T06:30:52.376Z,4.97
2023-02-05T06:33:24.116Z,4.99
2023-02-05T06:35:55.650Z,4.77
2023-02-05T06:38:27.321Z,4.63
2023-02-05T06:40:58.920Z,4.64
2023-02-05T06:43:30.620Z,4.41
2023-02-05T06:46:02.220Z,4.56
2023-02-05T06:48:33.931Z,4.63
2023-02-05T06:51:05.702Z,4.66
2023-02-05T06:53:37.356Z,4.82
2023-02-05T06:56:09.034Z,4.78
2023-02-05T06:58:40.627Z,4.43
2023-02-05T07:01:12.285Z,4.37
2023-02-05T07:03:44.010Z,4.54
2023-02-05T07:06:15.660Z,4.36
2023-02-05T07:08:47.237Z,4.51
2023-02-05T07:11:19.891Z,4.79
2023-02-05T07:13:52.071Z,4.59
2023-02-05T07:16:23.669Z,4.79
2023-02-05T07:18:55.284Z,4.67
2023-02-05T07:21:26.889Z,5.09
2023-02-05T07:23:58.486Z,5.18
2023-02-05T07:26:30.159Z,5.37
2023-02-05T07:29:02.651Z,7.25
2023-02-05T07:31:34.476Z,8.91
2023-02-05T07:34:06.353Z,10.20
2023-02-05T07:36:37.907Z,11.30
2023-02-05T07:39:09.575Z,12.69
2023-02-05T07:41:41.166Z,12.81
2023-02-05T07:44:12.938Z,13.18
2023-02-05T07:46:44.616Z,13.37
2023-02-05T07:49:16.293Z,15.09
2023-02-05T07:51:48.044Z,16.17
2023-02-05T07:54:20.536Z,16.74
2023-02-05T07:56:53.199Z,16.50
2023-02-05T07:59:24.993Z,16.47
2023-02-05T08:01:56.637Z,16.78
2023-02-05T08:04:28.262Z,17.53
2023-02-05T08:06:59.880Z,16.81
2023-02-05T08:09:31.923Z,18.23
2023-02-05T08:12:04.780Z,17.01
2023-02-05T08:14:36.444Z,16.21
2023-02-05T08:17:08.152Z,15.67
2023-02-05T08:19:40.525Z,15.76
2023-02-05T08:22:12.274Z,16.02
2023-02-05T08:24:43.934Z,16.35
2023-02-05T08:27:15.542Z,16.11
2023-02-05T08:29:48.153Z,16.39
2023-02-05T08:32:19.787Z,16.85
2023-02-05T08:34:51.527Z,16.53
2023-02-05T08:37:23.192Z,17.55
2023-02-05T08:39:54.842Z,17.53
2023-02-05T08:42:27.190Z,18.12
2023-02-05T08:44:58.919Z,17.49
2023-02-05T08:47:30.467Z,16.80
2023-02-05T08:50:04.633Z,16.83
2023-02-05T08:52:37.092Z,16.30
2023-02-05T08:55:09.220Z,17.12
2023-02-05T08:57:41.435Z,17.77
2023-02-05T09:00:13.971Z,18.33
2023-02-05T09:02:45.660Z,18.92
2023-02-05T09:05:17.435Z,18.68
2023-02-05T09:07:48.989Z,19.58
2023-02-05T09:10:20.560Z,17.51
2023-02-05T09:12:52.128Z,15.25
2023-02-05T09:15:23.891Z,13.49
2023-02-05T09:17:55.551Z,13.25
2023-02-05T09:20:27.214Z,12.68
2023-02-05T09:22:58.851Z,11.94
2023-02-05T09:25:30.401Z,13.20
2023-02-05T09:28:02.062Z,12.48
2023-02-05T09:30:33.995Z,12.39
2023-02-05T09:33:06.354Z,12.56
2023-02-05T09:35:38.320Z,12.78
2023-02-05T09:38:14.936Z,13.75
2023-02-05T09:40:52.526Z,13.73
2023-02-05T09:43:32.059Z,13.16
2023-02-05T09:46:14.342Z,11.61
2023-02-05T09:48:51.157Z,11.68
2023-02-05T09:51:40.738Z,13.50
2023-02-05T09:54:40.510Z,13.11
2023-02-05T09:57:17.859Z,12.87
2023-02-05T09:59:49.531Z,14.98
2023-02-05T10:02:29.962Z,13.89
2023-02-05T10:05:02.355Z,13.78
2023-02-05T10:07:33.887Z,15.45
2023-02-05T10:10:20.019Z,17.14
2023-02-05T10:13:16.908Z,16.56
2023-02-05T10:16:09.858Z,18.54
2023-02-05T10:19:03.184Z,16.97
2023-02-05T10:22:19.383Z,15.73
2023-02-05T10:25:13.246Z,14.01
2023-02-05T10:28:22.202Z,14.08
2023-02-05T10:31:14.047Z,12.44
2023-02-05T10:33:58.932Z,11.91
2023-02-05T10:36:30.890Z,11.75
2023-02-05T10:39:10.406Z,11.34
2023-02-05T10:42:26.790Z,11.33
2023-02-05T10:45:23.162Z,11.05
2023-02-05T10:48:09.629Z,11.28
2023-02-05T10:50:53.124Z,11.24
2023-02-05T10:53:26.512Z,11.45
2023-02-05T10:56:01.783Z,11.03
2023-02-05T10:58:46.900Z,10.92
2023-02-05T11:01:20.479Z,11.34
2023-02-05T11:03:59.281Z,11.32
2023-02-05T11:06:44.808Z,11.01
2023-02-05T11:09:25.280Z,11.20
2023-02-05T11:12:14.558Z,10.98
2023-02-05T11:14:55.241Z,10.70
2023-02-05T11:17:33.798Z,10.73
2023-02-05T11:20:17.718Z,10.38
2023-02-05T11:22:49.414Z,10.64
2023-02-05T11:25:24.303Z,10.33
2023-02-05T11:28:01.055Z,10.28
2023-02-05T11:30:52.304Z,10.20
2023-02-05T11:33:30.190Z,10.32
2023-02-05T11:36:03.390Z,10.39
2023-02-05T11:38:47.569Z,10.63
2023-02-05T11:41:40.863Z,11.04
2023-02-05T11:44:30.189Z,11.02
2023-02-05T11:47:03.245Z,10.87
2023-02-05T11:49:38.656Z,11.04
2023-02-05T11:52:13.953Z,10.63
2023-02-05T11:54:47.827Z,10.52
2023-02-05T11:57:19.314Z,10.76
2023-02-05T11:59:57.946Z,10.69
2023-02-05T12:02:35.891Z,10.36
2023-02-05T12:05:17.461Z,10.49
2023-02-05T12:07:58.308Z,10.88
2023-02-05T12:11:03.866Z,11.48
2023-02-05T12:13:56.762Z,11.33
2023-02-05T12:16:39.065Z,10.58
2023-02-05T12:19:24.851Z,10.83
2023-02-05T12:22:06.558Z,10.47
2023-02-05T12:25:02.833Z,10.43
2023-02-05T12:28:02.561Z,10.35
2023-02-05T12:31:10.689Z,10.65
2023-02-05T12:33:54.301Z,10.33
2023-02-05T12:36:34.486Z,10.62
2023-02-05T12:39:37.162Z,11.22
2023-02-05T12:42:21.262Z,11.11
2023-02-05T12:45:16.949Z,11.17
2023-02-05T12:48:30.041Z,10.69
2023-02-05T12:51:13.546Z,10.68
2023-02-05T12:53:54.036Z,10.80
2023-02-05T12:56:45.054Z,10.83
2023-02-05T12:59:19.222Z,10.93
2023-02-05T13:02:11.186Z,10.88
2023-02-05T13:04:51.370Z,10.50
2023-02-05T13:07:41.297Z,10.59
2023-02-05T13:10:51.070Z,10.33
2023-02-05T13:13:33.184Z,10.58
2023-02-05T13:16:15.503Z,10.27
2023-02-05T13:18:59.123Z,9.80
2023-02-05T13:21:30.766Z,10.44
2023-02-05T13:24:34.350Z,10.87
2023-02-05T13:27:23.166Z,10.59
2023-02-05T13:29:55.923Z,10.23
2023-02-05T13:32:28.399Z,10.07
2023-02-05T13:35:00.531Z,10.22
2023-02-05T13:37:55.907Z,10.20
2023-02-05T13:40:48.707Z,9.98
2023-02-05T13:43:44.448Z,9.54
2023-02-05T13:46:26.230Z,9.94
2023-02-05T13:49:18.259Z,10.27
2023-02-05T13:52:17.734Z,10.14
2023-02-05T13:55:01.543Z,9.94
2023-02-05T13:57:51.273Z,9.95
2023-02-05T14:00:25.716Z,9.75
2023-02-05T14:03:00.173Z,9.86
2023-02-05T14:05:41.152Z,9.65
2023-02-05T14:08:27.153Z,9.56
2023-02-05T14:11:04.606Z,9.36
2023-02-05T14:13:36.460Z,13.34
2023-02-05T14:16:26.259Z,13.12
2023-02-05T14:19:00.672Z,12.25
2023-02-05T14:21:32.230Z,12.36
2023-02-05T14:24:26.804Z,12.90
2023-02-05T14:26:58.482Z,12.20
2023-02-05T14:29:41.843Z,11.90
2023-02-05T14:32:28.268Z,11.95
2023-02-05T14:35:05.351Z,12.17
2023-02-05T14:37:45.299Z,12.52
2023-02-05T14:40:26.255Z,12.14
2023-02-05T14:43:24.453Z,10.85
2023-02-05T14:45:59.682Z,11.43
2023-02-05T14:48:40.463Z,10.87
2023-02-05T14:51:38.813Z,9.98
2023-02-05T14:54:23.778Z,10.09
2023-02-05T14:57:38.188Z,9.98
2023-02-05T15:00:40.596Z,9.82
2023-02-05T15:03:23.179Z,9.67
2023-02-05T15:06:07.368Z,9.44
2023-02-05T15:08:52.305Z,9.69
2023-02-05T15:11:36.873Z,10.10
2023-02-05T15:14:37.572Z,10.02
2023-02-05T15:17:09.096Z,10.12
2023-02-05T15:19:44.019Z,10.23
2023-02-05T15:22:31.442Z,9.77
2023-02-05T15:25:26.084Z,9.90
2023-02-05T15:28:07.216Z,9.90
2023-02-05T15:31:02.325Z,10.20
2023-02-05T15:33:58.150Z,9.88
2023-02-05T15:37:11.284Z,9.66
2023-02-05T15:40:08.857Z,9.68
2023-02-05T15:42:43.193Z,9.57
2023-02-05T15:45:22.349Z,9.37
2023-02-05T15:48:06.209Z,9.51
2023-02-05T15:50:44.291Z,9.87
2023-02-05T15:53:34.076Z,10.08
2023-02-05T15:56:16.439Z,10.12
2023-02-05T15:59:11.183Z,10.28
2023-02-05T16:01:51.668Z,10.17
2023-02-05T16:04:23.223Z,10.19
2023-02-05T16:06:54.888Z,10.13
2023-02-05T16:09:29.262Z,10.25
2023-02-05T16:12:14.640Z,10.59
2023-02-05T16:14:46.466Z,10.22
2023-02-05T16:17:36.325Z,10.47
2023-02-05T16:20:26.604Z,10.37
2023-02-05T16:23:08.128Z,10.06
2023-02-05T16:26:00.982Z,10.32
2023-02-05T16:28:46.964Z,10.43
2023-02-05T16:31:21.772Z,9.88
2023-02-05T16:34:08.246Z,10.08
2023-02-05T16:36:46.913Z,10.33
2023-02-05T16:39:25.727Z,9.88
2023-02-05T16:42:09.583Z,9.98
2023-02-05T16:44:49.463Z,9.99
2023-02-05T16:47:21.378Z,9.50
2023-02-05T16:49:52.948Z,9.05
2023-02-05T16:52:33.282Z,9.21
2023-02-05T16:55:21.327Z,9.50
2023-02-05T16:57:56.000Z,9.38
2023-02-05T17:00:28.013Z,9.62
2023-02-05T17:03:17.591Z,9.54
2023-02-05T17:05:59.856Z,9.46
2023-02-05T17:08:37.425Z,9.68
2023-02-05T17:11:33.508Z,9.25
2023-02-05T17:14:13.441Z,8.99
2023-02-05T17:16:56.333Z,9.24
2023-02-05T17:19:32.446Z,9.30
2023-02-05T17:22:16.048Z,8.88
2023-02-05T17:24:49.755Z,9.04
2023-02-05T17:27:31.996Z,9.19
2023-02-05T17:30:11.243Z,9.48
2023-02-05T17:32:45.793Z,9.52
2023-02-05T17:35:19.459Z,9.77
2023-02-05T17:37:51.903Z,9.62
2023-02-05T17:40:23.463Z,9.58
2023-02-05T17:42:55.063Z,9.58
2023-02-05T17:45:32.229Z,9.50
2023-02-05T17:48:04.300Z,9.43
2023-02-05T17:50:37.051Z,8.77
2023-02-05T17:53:11.688Z,8.24
2023-02-05T17:55:43.346Z,7.99
2023-02-05T17:58:15.021Z,8.24
2023-02-05T18:00:46.630Z,8.30
2023-02-05T18:03:18.260Z,8.53
2023-02-05T18:05:49.839Z,8.19
2023-02-05T18:08:21.419Z,8.37
2023-02-05T18:10:52.998Z,7.73
2023-02-05T18:13:24.575Z,8.05
2023-02-05T18:15:56.253Z,8.36
2023-02-05T18:18:28.365Z,8.57
2023-02-05T18:20:59.992Z,8.62
2023-02-05T18:23:31.720Z,8.33
2023-02-05T18:26:06.038Z,8.61
2023-02-05T18:28:37.678Z,8.47
2023-02-05T18:31:10.245Z,8.69
2023-02-05T18:33:41.957Z,8.54
2023-02-05T18:36:14.489Z,8.67
2023-02-05T18:38:46.183Z,8.49
2023-02-05T18:41:20.166Z,8.15
2023-02-05T18:43:56.066Z,7.82
2023-02-05T18:46:28.640Z,7.78
2023-02-05T18:49:00.550Z,8.10
2023-02-05T18:51:32.249Z,8.45
2023-02-05T18:54:04.644Z,8.30
2023-02-05T18:56:38.121Z,8.07
2023-02-05T18:59:15.546Z,8.36
2023-02-05T19:01:47.232Z,8.27
2023-02-05T19:04:19.102Z,8.14
2023-02-05T19:06:51.905Z,7.72
2023-02-05T19:09:25.437Z,7.99
2023-02-05T19:11:57.054Z,8.04
2023-02-05T19:14:28.898Z,8.20
2023-02-05T19:17:00.452Z,7.70
2023-02-05T19:19:32.018Z,7.80
2023-02-05T19:22:03.652Z,7.28
2023-02-05T19:24:35.453Z,7.72
2023-02-05T19:27:07.068Z,8.05
2023-02-05T19:29:38.729Z,8.05
2023-02-05T19:32:10.329Z,7.44
2023-02-05T19:34:41.865Z,7.02
2023-02-05T19:37:13.494Z,6.73
2023-02-05T19:39:45.095Z,6.63
2023-02-05T19:42:16.796Z,7.05
2023-02-05T19:44:48.412Z,6.86
2023-02-05T19:47:19.992Z,6.93
2023-02-05T19:49:51.589Z,6.98
2023-02-05T19:52:23.347Z,6.71
2023-02-05T19:54:54.931Z,7.09
2023-02-05T19:57:26.535Z,6.87
2023-02-05T19:59:58.161Z,6.68
2023-02-05T20:02:29.754Z,6.74
2023-02-05T20:05:01.493Z,6.78
2023-02-05T20:07:33.126Z,6.72
2023-02-05T20:10:06.214Z,6.75
2023-02-05T20:12:37.814Z,6.75
2023-02-05T20:15:10.207Z,7.16
2023-02-05T20:17:50.998Z,7.09
2023-02-05T20:20:33.175Z,6.97
2023-02-05T20:23:06.135Z,6.87
2023-02-05T20:25:37.769Z,6.95
2023-02-05T20:28:09.400Z,7.18
2023-02-05T20:30:41.889Z,7.02
2023-02-05T20:33:13.531Z,7.44
2023-02-05T20:35:45.126Z,7.36
2023-02-05T20:38:16.677Z,7.31
2023-02-05T20:40:48.329Z,7.43
2023-02-05T20:43:19.955Z,7.26
2023-02-05T20:45:51.723Z,7.54
2023-02-05T20:48:23.404Z,7.37
2023-02-05T20:50:55.070Z,7.36
2023-02-05T20:53:26.772Z,7.33
2023-02-05T20:56:07.320Z,7.27
2023-02-05T20:58:40.031Z,7.50
2023-02-05T21:01:18.706Z,7.66
2023-02-05T21:03:53.239Z,6.94
2023-02-05T21:06:26.866Z,6.85
2023-02-05T21:08:58.663Z,6.51
2023-02-05T21:11:30.857Z,6.64
2023-02-05T21:14:03.653Z,7.04
2023-02-05T21:16:36.773Z,6.62
2023-02-05T21:19:08.855Z,6.97
2023-02-05T21:21:40.826Z,7.18
2023-02-05T21:24:14.771Z,7.16
2023-02-05T21:26:48.358Z,7.04
2023-02-05T21:29:21.116Z,7.05
2023-02-05T21:31:53.460Z,7.30
2023-02-05T21:34:27.207Z,7.29
2023-02-05T21:36:58.769Z,7.28
2023-02-05T21:39:30.398Z,7.01
2023-02-05T21:42:01.964Z,7.11
2023-02-05T21:44:33.569Z,7.21
2023-02-05T21:47:05.188Z,6.62
2023-02-05T21:49:36.870Z,7.04
2023-02-05T21:52:08.753Z,6.85
2023-02-05T21:54:40.318Z,6.76
2023-02-05T21:57:12.141Z,7.14
2023-02-05T21:59:44.080Z,6.88
2023-02-05T22:02:16.099Z,6.82
2023-02-05T22:04:47.795Z,6.68
2023-02-05T22:07:19.386Z,6.98
2023-02-05T22:09:51.036Z,7.17
2023-02-05T22:12:22.773Z,7.23
2023-02-05T22:14:54.335Z,6.57
2023-02-05T22:17:25.878Z,6.84
2023-02-05T22:19:57.418Z,6.88
2023-02-05T22:22:28.990Z,6.61
2023-02-05T22:25:00.623Z,6.87
2023-02-05T22:27:32.400Z,6.98
2023-02-05T22:30:04.228Z,6.82
2023-02-05T22:32:35.887Z,6.61
2023-02-05T22:35:07.628Z,6.18
2023-02-05T22:37:39.254Z,5.82
2023-02-05T22:40:11.414Z,6.19
2023-02-05T22:42:43.043Z,5.99
2023-02-05T22:45:14.746Z,5.68
2023-02-05T22:47:46.344Z,5.53
2023-02-05T22:50:17.964Z,5.39
2023-02-05T22:52:49.571Z,5.39
2023-02-05T22:55:21.180Z,5.34
2023-02-05T22:57:52.749Z,5.40
2023-02-05T23:00:24.303Z,5.36
2023-02-05T23:02:57.300Z,5.31
2023-02-05T23:05:33.177Z,4.96
2023-02-05T23:08:05.057Z,4.93
2023-02-05T23:10:36.613Z,4.97
2023-02-05T23:13:08.532Z,5.07
2023-02-05T23:15:40.299Z,4.78
2023-02-05T23:18:11.881Z,4.91
2023-02-05T23:20:43.509Z,5.06
2023-02-05T23:23:15.069Z,5.11
2023-02-05T23:25:46.782Z,5.08
2023-02-05T23:28:18.495Z,5.21
2023-02-05T23:30:50.246Z,5.47
2023-02-05T23:33:21.907Z,5.08
2023-02-05T23:35:54.925Z,5.41
2023-02-05T23:38:27.832Z,5.10
2023-02-05T23:40:59.831Z,5.34
2023-02-05T23:43:33.639Z,5.17
2023-02-05T23:46:07.301Z,5.04
2023-02-05T23:48:38.883Z,5.23
2023-02-05T23:51:10.421Z,5.13
2023-02-05T23:53:41.946Z,5.16
2023-02-05T23:56:13.474Z,5.33
2023-02-05T23:58:45.040Z,5.28
